createdAt,value
2022-08-20T00:01:05.374Z,9.30
2022-08-20T00:03:35.106Z,8.50
2022-08-20T00:06:17.075Z,10.60
2022-08-20T00:08:45.369Z,10.03
2022-08-20T00:11:17.661Z,9.60
2022-08-20T00:13:50.745Z,9.67
2022-08-20T00:16:19.350Z,8.77
2022-08-20T00:18:46.858Z,10.10
2022-08-20T00:21:18.089Z,10.00
2022-08-20T00:23:49.082Z,9.87
2022-08-20T00:26:16.357Z,9.03
2022-08-20T00:28:43.333Z,8.80
2022-08-20T00:31:12.447Z,8.97
2022-08-20T00:33:39.633Z,9.83
2022-08-20T00:36:09.557Z,9.93
2022-08-20T00:38:41.653Z,9.17
2022-08-20T00:41:12.493Z,9.17
2022-08-20T00:43:51.873Z,9.27
2022-08-20T00:46:31.060Z,9.97
2022-08-20T00:48:59.663Z,11.00
2022-08-20T00:51:43.064Z,9.60
2022-08-20T00:54:18.006Z,9.03
2022-08-20T00:56:49.420Z,9.40
2022-08-20T00:59:20.361Z,10.63
2022-08-20T01:01:48.206Z,9.90
2022-08-20T01:04:27.852Z,10.10
2022-08-20T01:06:55.074Z,10.63
2022-08-20T01:09:33.386Z,9.10
2022-08-20T01:12:10.287Z,8.17
2022-08-20T01:14:46.512Z,10.23
2022-08-20T01:17:25.756Z,10.53
2022-08-20T01:20:16.593Z,9.40
2022-08-20T01:23:04.810Z,10.67
2022-08-20T01:25:43.472Z,10.10
2022-08-20T01:28:12.091Z,11.10
2022-08-20T01:30:39.525Z,10.43
2022-08-20T01:33:06.461Z,10.53
2022-08-20T01:35:39.797Z,12.07
2022-08-20T01:38:07.339Z,10.37
2022-08-20T01:40:59.402Z,9.90
2022-08-20T01:43:26.805Z,10.70
2022-08-20T01:45:54.479Z,10.73
2022-08-20T01:48:22.042Z,10.20
2022-08-20T01:51:02.000Z,11.17
2022-08-20T01:53:37.609Z,11.50
2022-08-20T01:56:11.689Z,10.63
2022-08-20T01:58:41.961Z,10.43
2022-08-20T02:01:46.763Z,10.00
2022-08-20T02:04:15.216Z,10.40
2022-08-20T02:06:56.462Z,10.67
2022-08-20T02:09:27.030Z,10.00
2022-08-20T02:11:53.958Z,10.17
2022-08-20T02:14:20.777Z,10.87
2022-08-20T02:16:54.467Z,10.17
2022-08-20T02:19:35.662Z,9.90
2022-08-20T02:22:11.483Z,9.20
2022-08-20T02:24:38.374Z,10.27
2022-08-20T02:27:05.191Z,10.53
2022-08-20T02:29:32.156Z,9.53
2022-08-20T02:32:24.809Z,11.07
2022-08-20T02:34:45.897Z,9.90
2022-08-20T02:37:18.481Z,11.37
2022-08-20T02:39:48.422Z,10.03
2022-08-20T02:42:15.148Z,9.40
2022-08-20T02:44:41.814Z,10.20
2022-08-20T02:47:08.735Z,10.57
2022-08-20T02:49:35.476Z,10.47
2022-08-20T02:52:02.180Z,10.97
2022-08-20T02:54:29.322Z,10.13
2022-08-20T02:56:56.166Z,10.83
2022-08-20T02:59:23.268Z,11.60
2022-08-20T03:01:58.106Z,10.70
2022-08-20T03:04:29.190Z,11.00
2022-08-20T03:06:56.374Z,10.43
2022-08-20T03:09:23.394Z,11.77
2022-08-20T03:11:50.086Z,11.23
2022-08-20T03:14:17.109Z,11.00
2022-08-20T03:16:43.753Z,10.60
2022-08-20T03:19:10.389Z,9.90
2022-08-20T03:21:37.135Z,10.30
2022-08-20T03:24:04.158Z,10.33
2022-08-20T03:26:30.940Z,9.83
2022-08-20T03:28:57.612Z,11.13
2022-08-20T03:31:24.296Z,11.17
2022-08-20T03:33:53.400Z,9.87
2022-08-20T03:36:22.252Z,10.70
2022-08-20T03:39:00.702Z,11.27
2022-08-20T03:41:28.867Z,11.00
2022-08-20T03:43:55.957Z,10.23
2022-08-20T03:46:23.955Z,11.60
2022-08-20T03:49:00.638Z,10.37
2022-08-20T03:51:30.898Z,11.80
2022-08-20T03:53:58.874Z,8.63
2022-08-20T03:56:27.649Z,10.70
2022-08-20T03:58:54.584Z,10.70
2022-08-20T04:01:45.592Z,9.90
2022-08-20T04:04:12.445Z,10.37
2022-08-20T04:06:40.450Z,10.70
2022-08-20T04:09:09.668Z,10.43
2022-08-20T04:11:38.382Z,9.30
2022-08-20T04:14:05.120Z,10.20
2022-08-20T04:16:33.475Z,10.80
2022-08-20T04:19:02.253Z,10.23
2022-08-20T04:21:34.817Z,10.70
2022-08-20T04:24:04.225Z,10.00
2022-08-20T04:26:31.275Z,9.97
2022-08-20T04:28:57.973Z,9.70
2022-08-20T04:31:25.294Z,11.40
2022-08-20T04:33:52.721Z,11.57
2022-08-20T04:36:19.936Z,10.83
2022-08-20T04:38:48.460Z,10.40
2022-08-20T04:41:22.640Z,9.90
2022-08-20T04:43:50.174Z,9.67
2022-08-20T04:46:17.004Z,10.10
2022-08-20T04:48:48.606Z,10.20
2022-08-20T04:51:16.019Z,10.57
2022-08-20T04:53:43.013Z,10.40
2022-08-20T04:56:09.788Z,11.70
2022-08-20T04:58:39.774Z,10.00
2022-08-20T05:01:09.903Z,10.20
2022-08-20T05:03:40.591Z,10.90
2022-08-20T05:06:09.889Z,9.37
2022-08-20T05:08:38.351Z,8.87
2022-08-20T05:11:33.206Z,9.53
2022-08-20T05:13:53.081Z,9.90
2022-08-20T05:16:20.160Z,10.90
2022-08-20T05:18:52.559Z,10.63
2022-08-20T05:21:21.108Z,9.63
2022-08-20T05:23:49.119Z,9.80
2022-08-20T05:26:16.390Z,10.40
2022-08-20T05:28:50.725Z,9.57
2022-08-20T05:31:31.948Z,10.43
2022-08-20T05:34:10.009Z,10.07
2022-08-20T05:36:46.843Z,9.47
2022-08-20T05:39:16.003Z,9.27
2022-08-20T05:41:42.889Z,10.33
2022-08-20T05:44:13.148Z,12.13
2022-08-20T05:46:42.142Z,10.90
2022-08-20T05:49:10.409Z,10.20
2022-08-20T05:51:37.864Z,9.90
2022-08-20T05:54:06.072Z,10.20
2022-08-20T05:56:33.065Z,10.30
2022-08-20T05:59:06.912Z,10.30
2022-08-20T06:01:36.255Z,11.23
2022-08-20T06:04:22.153Z,11.47
2022-08-20T06:06:51.029Z,11.13
2022-08-20T06:09:31.053Z,11.27
2022-08-20T06:12:05.904Z,10.70
2022-08-20T06:14:33.471Z,10.43
2022-08-20T06:17:13.483Z,10.83
2022-08-20T06:19:44.432Z,11.40
2022-08-20T06:22:20.317Z,11.97
2022-08-20T06:24:54.856Z,10.70
2022-08-20T06:27:21.793Z,11.47
2022-08-20T06:29:49.483Z,10.40
2022-08-20T06:32:17.150Z,9.97
2022-08-20T06:34:50.975Z,10.70
2022-08-20T06:37:27.475Z,10.70
2022-08-20T06:40:01.558Z,10.50
2022-08-20T06:42:28.592Z,10.00
2022-08-20T06:44:55.502Z,10.93
2022-08-20T06:47:22.214Z,10.30
2022-08-20T06:49:48.924Z,10.73
2022-08-20T06:52:17.410Z,10.13
2022-08-20T06:54:45.509Z,10.23
2022-08-20T06:57:12.761Z,10.30
2022-08-20T06:59:39.576Z,10.93
2022-08-20T07:02:06.820Z,11.30
2022-08-20T07:04:33.755Z,10.87
2022-08-20T07:07:00.555Z,9.97
2022-08-20T07:09:28.119Z,8.80
2022-08-20T07:11:55.216Z,8.87
2022-08-20T07:14:22.176Z,10.10
2022-08-20T07:16:49.609Z,9.83
2022-08-20T07:19:17.000Z,9.27
2022-08-20T07:21:44.331Z,10.00
2022-08-20T07:24:12.721Z,8.67
2022-08-20T07:26:40.104Z,10.00
2022-08-20T07:29:06.826Z,8.90
2022-08-20T07:31:52.490Z,8.50
2022-08-20T07:34:19.993Z,7.70
2022-08-20T07:36:48.796Z,6.40
2022-08-20T07:39:15.766Z,5.90
2022-08-20T07:41:43.583Z,3.47
2022-08-20T07:44:21.506Z,4.27
2022-08-20T07:46:58.126Z,4.37
2022-08-20T07:49:24.788Z,4.40
2022-08-20T07:51:51.576Z,3.70
2022-08-20T07:54:18.202Z,3.63
2022-08-20T07:56:45.121Z,4.37
2022-08-20T07:59:13.119Z,4.40
2022-08-20T08:01:39.862Z,4.63
2022-08-20T08:04:06.641Z,4.30
2022-08-20T08:06:33.366Z,6.67
2022-08-20T08:09:05.962Z,6.43
2022-08-20T08:11:35.327Z,6.57
2022-08-20T08:14:04.211Z,4.80
2022-08-20T08:16:32.274Z,5.43
2022-08-20T08:19:01.744Z,5.27
2022-08-20T08:21:29.918Z,4.67
2022-08-20T08:23:56.873Z,4.87
2022-08-20T08:26:24.189Z,4.23
2022-08-20T08:28:51.381Z,3.93
2022-08-20T08:31:18.395Z,3.20
2022-08-20T08:33:45.256Z,3.23
2022-08-20T08:36:14.407Z,3.10
2022-08-20T08:38:43.568Z,3.20
2022-08-20T08:41:16.128Z,4.00
2022-08-20T08:43:47.284Z,4.70
2022-08-20T08:46:17.970Z,5.00
2022-08-20T08:48:47.657Z,5.00
2022-08-20T08:51:27.933Z,7.87
2022-08-20T08:53:57.000Z,8.60
2022-08-20T08:56:27.465Z,10.30
2022-08-20T08:58:57.607Z,9.93
2022-08-20T09:01:55.285Z,13.50
2022-08-20T09:04:21.717Z,14.70
2022-08-20T09:06:53.344Z,13.50
2022-08-20T09:09:27.647Z,13.20
2022-08-20T09:11:56.984Z,12.73
2022-08-20T09:14:26.692Z,12.37
2022-08-20T09:16:54.302Z,15.80
2022-08-20T09:19:22.052Z,14.27
2022-08-20T09:21:48.966Z,13.57
2022-08-20T09:24:15.760Z,12.83
2022-08-20T09:26:42.639Z,12.80
2022-08-20T09:29:10.150Z,13.57
2022-08-20T09:31:37.794Z,12.30
2022-08-20T09:34:06.445Z,14.77
2022-08-20T09:36:33.834Z,14.60
2022-08-20T09:39:02.839Z,15.27
2022-08-20T09:41:31.209Z,15.77
2022-08-20T09:44:00.786Z,14.90
2022-08-20T09:46:27.762Z,16.13
2022-08-20T09:48:55.279Z,17.20
2022-08-20T09:51:22.728Z,16.90
2022-08-20T09:53:49.921Z,18.30
2022-08-20T09:56:16.915Z,16.40
2022-08-20T09:58:48.593Z,15.93
2022-08-20T10:01:17.352Z,14.93
2022-08-20T10:03:47.872Z,14.67
2022-08-20T10:06:16.638Z,14.27
2022-08-20T10:08:43.778Z,15.53
2022-08-20T10:11:10.465Z,13.40
2022-08-20T10:13:37.113Z,14.00
2022-08-20T10:16:04.279Z,13.47
2022-08-20T10:18:31.498Z,13.60
2022-08-20T10:20:58.294Z,14.07
2022-08-20T10:23:25.040Z,12.60
2022-08-20T10:25:51.727Z,13.10
2022-08-20T10:28:18.376Z,13.57
2022-08-20T10:30:45.202Z,14.63
2022-08-20T10:33:11.888Z,13.07
2022-08-20T10:35:38.561Z,13.43
2022-08-20T10:38:05.206Z,13.07
2022-08-20T10:40:31.893Z,12.50
2022-08-20T10:42:59.116Z,12.20
2022-08-20T10:45:25.862Z,12.10
2022-08-20T10:47:52.760Z,9.47
2022-08-20T10:50:20.019Z,5.33
2022-08-20T10:52:47.395Z,4.30
2022-08-20T10:55:15.062Z,3.77
2022-08-20T10:57:43.380Z,3.13
2022-08-20T11:00:13.242Z,4.20
2022-08-20T11:02:40.554Z,4.37
2022-08-20T11:05:08.069Z,4.40
2022-08-20T11:07:49.941Z,4.23
2022-08-20T11:10:27.575Z,4.47
2022-08-20T11:12:54.462Z,4.87
2022-08-20T11:15:21.312Z,5.20
2022-08-20T11:17:48.092Z,4.70
2022-08-20T11:20:17.985Z,5.00
2022-08-20T11:22:44.662Z,5.00
2022-08-20T11:25:11.436Z,4.20
2022-08-20T11:27:40.909Z,3.93
2022-08-20T11:30:10.503Z,3.43
2022-08-20T11:32:37.321Z,3.80
2022-08-20T11:35:19.180Z,3.40
2022-08-20T11:37:52.477Z,3.53
2022-08-20T11:40:19.849Z,3.17
2022-08-20T11:43:10.953Z,3.90
2022-08-20T11:45:37.696Z,2.70
2022-08-20T11:48:05.262Z,3.20
2022-08-20T11:50:32.419Z,3.13
2022-08-20T11:53:01.655Z,3.43
2022-08-20T11:55:30.367Z,3.47
2022-08-20T11:58:00.342Z,3.10
2022-08-20T12:00:32.117Z,3.13
2022-08-20T12:03:01.946Z,4.00
2022-08-20T12:05:29.940Z,3.37
2022-08-20T12:07:59.827Z,3.00
2022-08-20T12:10:28.439Z,3.60
2022-08-20T12:12:56.756Z,3.13
2022-08-20T12:15:24.100Z,2.50
2022-08-20T12:17:50.862Z,3.00
2022-08-20T12:20:17.922Z,3.30
2022-08-20T12:22:44.822Z,2.73
2022-08-20T12:25:13.100Z,2.63
2022-08-20T12:27:40.449Z,2.77
2022-08-20T12:30:13.375Z,3.20
2022-08-20T12:32:40.882Z,2.80
2022-08-20T12:35:09.788Z,2.70
2022-08-20T12:37:37.061Z,3.17
2022-08-20T12:40:07.285Z,2.93
2022-08-20T12:42:34.252Z,2.53
2022-08-20T12:45:01.754Z,2.53
2022-08-20T12:47:32.207Z,2.23
2022-08-20T12:50:21.129Z,2.30
2022-08-20T12:52:48.757Z,2.90
2022-08-20T12:55:18.916Z,2.50
2022-08-20T12:57:51.761Z,2.90
2022-08-20T13:00:22.169Z,2.70
2022-08-20T13:02:52.112Z,2.50
2022-08-20T13:05:19.362Z,2.40
2022-08-20T13:07:47.072Z,2.33
2022-08-20T13:10:35.354Z,2.33
2022-08-20T13:13:02.846Z,2.30
2022-08-20T13:15:31.460Z,3.20
2022-08-20T13:18:02.145Z,2.97
2022-08-20T13:20:34.287Z,2.20
2022-08-20T13:23:03.188Z,2.30
2022-08-20T13:25:30.201Z,2.27
2022-08-20T13:27:58.808Z,2.77
2022-08-20T13:30:25.772Z,2.00
2022-08-20T13:32:52.511Z,2.50
2022-08-20T13:35:19.761Z,2.47
2022-08-20T13:37:48.567Z,2.60
2022-08-20T13:40:16.328Z,2.50
2022-08-20T13:42:43.254Z,2.60
2022-08-20T13:45:10.769Z,2.60
2022-08-20T13:47:38.755Z,2.37
2022-08-20T13:50:11.761Z,2.50
2022-08-20T13:52:39.537Z,2.07
2022-08-20T13:55:12.141Z,2.60
2022-08-20T13:57:40.498Z,2.63
2022-08-20T14:00:12.657Z,2.70
2022-08-20T14:02:41.218Z,2.70
2022-08-20T14:05:08.705Z,2.40
2022-08-20T14:07:35.616Z,2.03
2022-08-20T14:10:18.421Z,2.47
2022-08-20T14:12:46.260Z,2.13
2022-08-20T14:15:12.996Z,2.60
2022-08-20T14:17:42.738Z,2.63
2022-08-20T14:20:15.515Z,2.20
2022-08-20T14:22:43.001Z,2.47
2022-08-20T14:25:12.182Z,2.20
2022-08-20T14:27:39.890Z,2.17
2022-08-20T14:30:10.884Z,2.43
2022-08-20T14:32:37.740Z,2.37
2022-08-20T14:35:05.616Z,2.10
2022-08-20T14:37:37.841Z,2.07
2022-08-20T14:40:08.066Z,2.20
2022-08-20T14:42:35.318Z,2.10
2022-08-20T14:45:04.106Z,2.10
2022-08-20T14:47:34.765Z,2.20
2022-08-20T14:50:06.595Z,2.40
2022-08-20T14:52:36.731Z,2.70
2022-08-20T14:55:06.145Z,2.40
2022-08-20T14:57:33.456Z,2.33
2022-08-20T15:00:00.224Z,2.20
2022-08-20T15:02:27.117Z,2.30
2022-08-20T15:04:54.164Z,2.63
2022-08-20T15:07:25.862Z,2.07
2022-08-20T15:09:53.876Z,2.03
2022-08-20T15:12:20.934Z,2.50
2022-08-20T15:14:48.142Z,1.90
2022-08-20T15:17:24.768Z,1.87
2022-08-20T15:19:52.142Z,1.90
2022-08-20T15:22:19.506Z,2.07
2022-08-20T15:24:46.427Z,2.37
2022-08-20T15:27:24.699Z,2.20
2022-08-20T15:29:52.879Z,1.97
2022-08-20T15:32:20.667Z,2.07
2022-08-20T15:34:48.648Z,2.33
2022-08-20T15:37:19.840Z,1.97
2022-08-20T15:39:48.086Z,2.33
2022-08-20T15:42:15.448Z,1.67
2022-08-20T15:44:42.649Z,2.00
2022-08-20T15:47:27.182Z,2.20
2022-08-20T15:50:03.870Z,2.00
2022-08-20T15:52:42.184Z,2.10
2022-08-20T15:55:13.308Z,2.03
2022-08-20T15:57:58.920Z,2.00
2022-08-20T16:00:54.230Z,2.23
2022-08-20T16:03:37.788Z,2.10
2022-08-20T16:06:17.226Z,2.20
2022-08-20T16:09:05.388Z,2.20
2022-08-20T16:12:06.177Z,2.50
2022-08-20T16:14:40.023Z,2.33
2022-08-20T16:17:13.254Z,2.43
2022-08-20T16:20:18.830Z,2.37
2022-08-20T16:22:46.840Z,2.37
2022-08-20T16:25:16.318Z,2.80
2022-08-20T16:28:15.627Z,2.20
2022-08-20T16:30:48.175Z,2.40
2022-08-20T16:33:21.670Z,2.10
2022-08-20T16:35:58.541Z,2.43
2022-08-20T16:38:43.225Z,2.53
2022-08-20T16:41:45.154Z,2.20
2022-08-20T16:44:28.724Z,2.60
2022-08-20T16:47:19.714Z,2.73
2022-08-20T16:50:16.320Z,2.27
2022-08-20T16:52:48.452Z,2.27
2022-08-20T16:55:15.713Z,2.50
2022-08-20T16:57:43.564Z,2.80
2022-08-20T17:00:20.085Z,2.57
2022-08-20T17:03:04.420Z,2.30
2022-08-20T17:05:56.568Z,2.30
2022-08-20T17:08:40.774Z,2.80
2022-08-20T17:11:17.517Z,2.50
2022-08-20T17:13:47.444Z,2.60
2022-08-20T17:16:14.455Z,2.60
2022-08-20T17:18:53.057Z,1.83
2022-08-20T17:21:38.355Z,2.83
2022-08-20T17:24:20.238Z,2.83
2022-08-20T17:26:54.574Z,2.90
2022-08-20T17:29:28.738Z,2.43
2022-08-20T17:31:58.902Z,3.07
2022-08-20T17:34:32.164Z,2.30
2022-08-20T17:37:18.300Z,3.00
2022-08-20T17:39:52.342Z,2.63
2022-08-20T17:42:26.159Z,2.70
2022-08-20T17:45:21.098Z,2.87
2022-08-20T17:47:49.034Z,2.87
2022-08-20T17:50:20.598Z,2.73
2022-08-20T17:52:55.095Z,2.77
2022-08-20T17:55:23.092Z,2.87
2022-08-20T17:57:55.840Z,2.47
2022-08-20T18:00:27.855Z,2.30
2022-08-20T18:03:03.987Z,2.47
2022-08-20T18:05:35.447Z,2.87
2022-08-20T18:08:21.127Z,2.57
2022-08-20T18:11:19.736Z,2.57
2022-08-20T18:14:16.174Z,2.77
2022-08-20T18:16:52.121Z,2.63
2022-08-20T18:19:44.667Z,2.70
2022-08-20T18:22:25.438Z,2.67
2022-08-20T18:25:19.868Z,2.80
2022-08-20T18:27:53.167Z,2.43
2022-08-20T18:30:22.624Z,2.77
2022-08-20T18:33:00.213Z,2.83
2022-08-20T18:35:45.805Z,2.70
2022-08-20T18:38:22.544Z,2.50
2022-08-20T18:40:54.464Z,3.10
2022-08-20T18:43:30.389Z,2.90
2022-08-20T18:46:28.476Z,2.30
2022-08-20T18:49:01.411Z,3.80
2022-08-20T18:51:50.401Z,2.70
2022-08-20T18:54:36.065Z,2.87
2022-08-20T18:57:06.785Z,2.60
2022-08-20T18:59:41.671Z,2.83
2022-08-20T19:02:22.063Z,3.10
2022-08-20T19:04:59.794Z,2.83
2022-08-20T19:07:45.705Z,3.53
2022-08-20T19:10:34.840Z,2.77
2022-08-20T19:13:30.831Z,3.07
2022-08-20T19:16:04.347Z,2.90
2022-08-20T19:18:45.192Z,3.30
2022-08-20T19:21:15.493Z,2.73
2022-08-20T19:23:50.405Z,2.90
2022-08-20T19:26:25.709Z,2.90
2022-08-20T19:29:08.680Z,2.87
2022-08-20T19:31:36.359Z,3.00
2022-08-20T19:34:19.524Z,3.00
2022-08-20T19:36:54.877Z,3.03
2022-08-20T19:39:24.735Z,2.90
2022-08-20T19:42:12.365Z,3.07
2022-08-20T19:44:58.853Z,2.80
2022-08-20T19:47:45.901Z,3.20
2022-08-20T19:50:43.254Z,2.83
2022-08-20T19:53:30.373Z,3.20
2022-08-20T19:56:18.097Z,2.53
2022-08-20T19:58:45.352Z,3.17
2022-08-20T20:01:21.132Z,2.70
2022-08-20T20:04:15.033Z,2.90
2022-08-20T20:06:45.378Z,3.70
2022-08-20T20:09:28.143Z,3.63
2022-08-20T20:12:00.462Z,3.33
2022-08-20T20:14:32.879Z,3.03
2022-08-20T20:17:00.639Z,3.47
2022-08-20T20:19:28.597Z,3.10
2022-08-20T20:22:19.113Z,3.33
2022-08-20T20:24:56.513Z,3.80
2022-08-20T20:27:26.604Z,3.57
2022-08-20T20:30:03.065Z,3.20
2022-08-20T20:32:33.463Z,3.53
2022-08-20T20:35:02.924Z,3.73
2022-08-20T20:37:49.127Z,3.40
2022-08-20T20:40:35.837Z,3.10
2022-08-20T20:43:08.924Z,2.77
2022-08-20T20:45:45.759Z,2.93
2022-08-20T20:48:24.514Z,3.17
2022-08-20T20:50:52.048Z,3.47
2022-08-20T20:53:49.512Z,3.10
2022-08-20T20:57:15.608Z,3.37
2022-08-20T20:59:42.846Z,3.30
2022-08-20T21:02:09.850Z,3.47
2022-08-20T21:04:39.546Z,2.97
2022-08-20T21:07:12.534Z,3.10
2022-08-20T21:09:41.881Z,3.50
2022-08-20T21:12:10.766Z,3.60
2022-08-20T21:14:37.987Z,3.47
2022-08-20T21:17:07.753Z,4.10
2022-08-20T21:19:34.938Z,4.07
2022-08-20T21:22:11.626Z,3.90
2022-08-20T21:24:38.484Z,3.83
2022-08-20T21:27:05.328Z,4.40
2022-08-20T21:29:33.073Z,3.97
2022-08-20T21:31:59.894Z,4.20
2022-08-20T21:34:26.719Z,4.13
2022-08-20T21:36:54.161Z,3.77
2022-08-20T21:39:21.639Z,3.33
2022-08-20T21:41:48.661Z,3.90
2022-08-20T21:44:22.814Z,4.13
2022-08-20T21:46:52.914Z,3.53
2022-08-20T21:49:20.144Z,3.50
2022-08-20T21:51:47.708Z,4.20
2022-08-20T21:54:14.804Z,3.70
2022-08-20T21:56:41.970Z,3.93
2022-08-20T21:59:10.106Z,3.57
2022-08-20T22:01:38.201Z,4.43
2022-08-20T22:04:06.595Z,3.80
2022-08-20T22:06:33.350Z,3.97
2022-08-20T22:09:00.370Z,4.27
2022-08-20T22:11:27.486Z,3.93
2022-08-20T22:13:54.705Z,4.20
2022-08-20T22:16:22.348Z,4.03
2022-08-20T22:18:50.145Z,4.50
2022-08-20T22:21:21.115Z,4.00
2022-08-20T22:23:48.853Z,3.73
2022-08-20T22:26:16.961Z,4.27
2022-08-20T22:28:43.834Z,3.80
2022-08-20T22:31:11.553Z,4.30
2022-08-20T22:33:39.305Z,4.00
2022-08-20T22:36:06.508Z,3.67
2022-08-20T22:38:33.422Z,3.83
2022-08-20T22:41:03.418Z,4.60
2022-08-20T22:43:33.283Z,4.73
2022-08-20T22:46:02.082Z,4.40
2022-08-20T22:48:30.181Z,4.10
2022-08-20T22:50:57.594Z,4.83
2022-08-20T22:53:26.022Z,4.30
2022-08-20T22:55:53.037Z,4.30
2022-08-20T22:58:30.418Z,4.50
2022-08-20T23:00:59.539Z,4.67
2022-08-20T23:03:39.821Z,5.20
2022-08-20T23:06:09.325Z,4.80
2022-08-20T23:08:36.902Z,4.63
2022-08-20T23:11:03.628Z,5.37
2022-08-20T23:13:30.410Z,4.90
2022-08-20T23:15:57.258Z,5.20
2022-08-20T23:18:24.231Z,4.80
2022-08-20T23:20:56.251Z,4.97
2022-08-20T23:23:24.557Z,5.10
2022-08-20T23:25:52.153Z,4.83
2022-08-20T23:28:21.208Z,5.03
2022-08-20T23:30:48.406Z,4.90
2022-08-20T23:33:15.345Z,5.10
2022-08-20T23:35:42.694Z,5.00
2022-08-20T23:38:09.618Z,4.80
2022-08-20T23:40:36.805Z,4.47
2022-08-20T23:43:04.496Z,4.70
2022-08-20T23:45:32.390Z,5.83
2022-08-20T23:47:59.335Z,5.17
2022-08-20T23:50:28.806Z,4.53
2022-08-20T23:52:57.063Z,4.40
2022-08-20T23:55:24.201Z,5.80
2022-08-20T23:57:51.937Z,4.80
